Time;durP1;ratioP1;P1;durP2;ratioP2;P2;SDS_P1;SDS_P2;PMS_P1;PMS_P2;Temp;Humidity;BMP_temperature;BMP_pressure;BME280_temperature;BME280_humidity;BME280_pressure;Samples;Min_cycle;Max_cycle;Signal;HPM_P1;HPM_P2
2021/06/17 00:00:29;;;;;;;539.28;481.20;;;;;;;;;;5022270;28;20041;-83
2021/06/17 00:02:56;;;;;;;537.25;479.33;;;;;;;;;;5007612;28;20026;-82
2021/06/17 00:05:23;;;;;;;540.75;482.50;;;;;;;;;;5018735;28;20776;-81
2021/06/17 00:07:51;;;;;;;539.42;481.30;;;;;;;;;;5016941;28;20029;-84
2021/06/17 00:10:21;;;;;;;538.55;480.58;;;;;;;;;;5021893;28;20049;-83
2021/06/17 00:12:47;;;;;;;535.55;477.65;;;;;;;;;;5006561;28;20071;-82
2021/06/17 00:15:14;;;;;;;532.80;475.02;;;;;;;;;;5027021;28;20037;-82
2021/06/17 00:17:46;;;;;;;532.30;474.50;;;;;;;;;;5024187;28;20034;-83
2021/06/17 00:20:15;;;;;;;529.80;472.27;;;;;;;;;;5024680;28;20034;-81
2021/06/17 00:22:41;;;;;;;528.00;470.67;;;;;;;;;;5022721;28;20502;-83
2021/06/17 00:25:07;;;;;;;527.28;469.90;;;;;;;;;;5025859;28;20045;-82
2021/06/17 00:27:38;;;;;;;529.13;471.52;;;;;;;;;;5025341;28;20055;-83
2021/06/17 00:30:05;;;;;;;528.33;470.73;;;;;;;;;;5015706;28;20507;-82
2021/06/17 00:32:32;;;;;;;530.00;472.60;;;;;;;;;;5003241;28;20088;-82
2021/06/17 00:34:57;;;;;;;523.47;466.17;;;;;;;;;;5024133;28;20045;-83
2021/06/17 00:37:23;;;;;;;535.88;478.08;;;;;;;;;;5021779;28;20029;-83
2021/06/17 00:39:49;;;;;;;531.53;474.02;;;;;;;;;;5016118;28;20021;-82
2021/06/17 00:42:18;;;;;;;530.95;473.45;;;;;;;;;;5021723;28;20035;-83
2021/06/17 00:44:44;;;;;;;529.75;472.67;;;;;;;;;;5023502;28;20113;-82
2021/06/17 00:47:14;;;;;;;552.65;485.38;;;;;;;;;;5023323;28;20197;-83
2021/06/17 00:49:44;;;;;;;530.22;472.83;;;;;;;;;;5007598;28;20120;-82
2021/06/17 00:52:21;;;;;;;;;;;;;;;;;;;;;
2021/06/17 00:54:48;;;;;;;528.90;471.40;;;;;;;;;;5026709;28;20025;-82
2021/06/17 00:57:15;;;;;;;528.10;470.70;;;;;;;;;;5025187;28;20030;-82
2021/06/17 00:59:41;;;;;;;524.20;466.90;;;;;;;;;;5018280;28;20380;-82
2021/06/17 01:02:07;;;;;;;528.80;471.50;;;;;;;;;;5009770;28;20022;-82
2021/06/17 01:04:33;;;;;;;527.70;470.23;;;;;;;;;;5017498;28;20117;-82
2021/06/17 01:06:59;;;;;;;529.90;472.50;;;;;;;;;;5026845;28;20453;-82
2021/06/17 01:09:34;;;;;;;536.67;478.83;;;;;;;;;;5019640;28;20349;-82
2021/06/17 01:12:00;;;;;;;527.25;469.80;;;;;;;;;;5023751;28;20033;-82
2021/06/17 01:14:32;;;;;;;521.60;464.17;;;;;;;;;;5014666;28;20065;-82
2021/06/17 01:17:02;;;;;;;527.78;470.33;;;;;;;;;;5022416;28;20029;-82
2021/06/17 01:19:31;;;;;;;525.50;468.00;;;;;;;;;;5016063;28;20022;-83
2021/06/17 01:22:03;;;;;;;516.47;459.42;;;;;;;;;;5020097;28;20096;-83
2021/06/17 01:24:44;;;;;;;528.75;471.00;;;;;;;;;;5020623;28;20120;-82
2021/06/17 01:27:46;;;;;;;526.45;468.83;;;;;;;;;;5009995;28;20064;-83
2021/06/17 01:30:15;;;;;;;518.58;461.25;;;;;;;;;;4939530;29;20032;-81
2021/06/17 01:32:45;;;;;;;527.40;469.65;;;;;;;;;;5005210;28;20042;-82
2021/06/17 01:35:12;;;;;;;518.80;461.52;;;;;;;;;;5012007;28;20041;-83
2021/06/17 01:37:39;;;;;;;518.60;461.50;;;;;;;;;;5018137;28;20065;-82
2021/06/17 01:40:06;;;;;;;515.92;457.17;;;;;;;;;;5010201;28;20030;-83
2021/06/17 01:42:39;;;;;;;523.70;466.23;;;;;;;;;;5011066;28;20030;-83
2021/06/17 01:45:08;;;;;;;516.70;459.23;;;;;;;;;;5022452;28;20076;-82
2021/06/17 01:47:35;;;;;;;520.95;463.63;;;;;;;;;;5020213;28;20029;-83
2021/06/17 01:50:01;;;;;;;518.50;460.20;;;;;;;;;;5019319;28;20029;-82
2021/06/17 01:52:32;;;;;;;516.90;459.58;;;;;;;;;;5025925;28;20037;-82
2021/06/17 01:55:01;;;;;;;517.08;459.75;;;;;;;;;;5017534;28;20025;-82
2021/06/17 01:57:27;;;;;;;517.35;458.55;;;;;;;;;;5016661;28;20400;-83
2021/06/17 01:59:56;;;;;;;520.00;462.55;;;;;;;;;;5015358;28;20040;-83
2021/06/17 02:02:23;;;;;;;514.08;455.25;;;;;;;;;;5010345;28;20037;-82
2021/06/17 02:04:51;;;;;;;515.75;458.38;;;;;;;;;;5024114;28;20112;-82
2021/06/17 02:07:24;;;;;;;515.63;457.15;;;;;;;;;;5007700;28;20433;-82
2021/06/17 02:09:51;;;;;;;512.78;450.05;;;;;;;;;;5006071;28;20107;-82
2021/06/17 02:12:20;;;;;;;514.38;456.15;;;;;;;;;;5023786;28;20525;-82
2021/06/17 02:14:48;;;;;;;509.75;450.50;;;;;;;;;;5019650;28;20105;-80
2021/06/17 02:17:15;;;;;;;515.45;455.40;;;;;;;;;;5008653;28;20088;-81
2021/06/17 02:19:41;;;;;;;514.72;453.52;;;;;;;;;;5020991;28;20018;-80
2021/06/17 02:22:10;;;;;;;512.92;450.52;;;;;;;;;;5020241;28;20363;-81
2021/06/17 02:24:41;;;;;;;512.97;453.92;;;;;;;;;;5020836;28;20113;-81
2021/06/17 02:27:14;;;;;;;516.08;458.30;;;;;;;;;;5008156;28;20053;-81
2021/06/17 02:29:43;;;;;;;512.47;451.63;;;;;;;;;;5014889;28;20022;-81
2021/06/17 02:32:10;;;;;;;512.55;451.65;;;;;;;;;;5004887;28;20144;-80
2021/06/17 02:34:36;;;;;;;514.50;454.98;;;;;;;;;;5019108;28;20028;-81
2021/06/17 02:37:06;;;;;;;510.50;449.17;;;;;;;;;;5022136;28;20664;-81
2021/06/17 02:39:32;;;;;;;514.03;451.65;;;;;;;;;;5005442;28;20018;-82
2021/06/17 02:41:59;;;;;;;515.05;455.42;;;;;;;;;;5020333;28;20053;-81
2021/06/17 02:44:26;;;;;;;512.47;453.35;;;;;;;;;;5021656;28;20025;-81
2021/06/17 02:46:55;;;;;;;512.25;449.92;;;;;;;;;;5006790;28;20038;-80
2021/06/17 02:49:21;;;;;;;512.90;445.92;;;;;;;;;;5020461;28;20124;-82
2021/06/17 02:51:47;;;;;;;516.28;457.05;;;;;;;;;;5018302;28;20077;-81
2021/06/17 02:54:18;;;;;;;525.80;453.27;;;;;;;;;;5022283;28;20053;-81
2021/06/17 02:57:00;;;;;;;513.63;449.83;;;;;;;;;;5004493;28;20029;-81
2021/06/17 02:59:37;;;;;;;511.20;445.73;;;;;;;;;;5010137;28;20452;-80
2021/06/17 03:02:10;;;;;;;511.10;450.10;;;;;;;;;;5021646;28;20036;-81
2021/06/17 03:04:45;;;;;;;513.65;453.23;;;;;;;;;;5001191;28;20032;-80
2021/06/17 03:07:15;;;;;;;509.80;447.85;;;;;;;;;;5000705;28;20022;-80
2021/06/17 03:09:41;;;;;;;;;;;;;;;;;;5016487;28;20030;-82
2021/06/17 03:12:08;;;;;;;512.70;444.20;;;;;;;;;;5016201;28;19943;-82
2021/06/17 03:14:36;;;;;;;512.17;451.10;;;;;;;;;;5007354;28;20164;-81
2021/06/17 03:17:02;;;;;;;522.13;464.45;;;;;;;;;;5024194;28;20033;-81
2021/06/17 03:19:28;;;;;;;524.30;466.73;;;;;;;;;;5017756;28;20114;-81
2021/06/17 03:22:01;;;;;;;518.45;460.77;;;;;;;;;;5005912;28;20599;-81
2021/06/17 03:24:30;;;;;;;519.42;461.98;;;;;;;;;;5016213;28;20030;-82
2021/06/17 03:26:58;;;;;;;513.08;455.70;;;;;;;;;;5004108;28;20042;-82
2021/06/17 03:29:31;;;;;;;517.35;460.10;;;;;;;;;;5006788;28;20464;-82
2021/06/17 03:31:58;;;;;;;520.13;463.00;;;;;;;;;;5009404;28;20029;-81
2021/06/17 03:34:25;;;;;;;520.63;463.45;;;;;;;;;;5017416;28;20134;-81
2021/06/17 03:36:53;;;;;;;518.55;461.42;;;;;;;;;;5001588;28;20092;-82
2021/06/17 03:39:22;;;;;;;515.83;458.80;;;;;;;;;;5014589;28;20087;-82
2021/06/17 03:41:50;;;;;;;525.35;466.95;;;;;;;;;;5011864;28;20033;-81
2021/06/17 03:44:16;;;;;;;521.55;464.25;;;;;;;;;;4998729;28;20026;-81
2021/06/17 03:46:43;;;;;;;518.70;461.73;;;;;;;;;;5024921;28;20026;-81
2021/06/17 03:49:12;;;;;;;524.45;467.23;;;;;;;;;;5024805;28;20078;-81
2021/06/17 03:51:38;;;;;;;524.05;466.90;;;;;;;;;;5010279;28;20034;-82
2021/06/17 03:54:05;;;;;;;524.78;467.70;;;;;;;;;;5021546;28;20036;-81
2021/06/17 03:56:31;;;;;;;522.08;465.10;;;;;;;;;;5021622;28;20120;-81
2021/06/17 03:58:57;;;;;;;530.13;472.40;;;;;;;;;;5013111;28;20034;-82
2021/06/17 04:01:23;;;;;;;526.15;469.15;;;;;;;;;;5010421;28;20100;-82
2021/06/17 04:03:50;;;;;;;529.00;471.52;;;;;;;;;;5025007;28;20121;-81
2021/06/17 04:06:17;;;;;;;525.85;468.83;;;;;;;;;;5017814;28;20026;-82
2021/06/17 04:08:51;;;;;;;525.60;468.38;;;;;;;;;;5018732;28;20022;-82
2021/06/17 04:11:17;;;;;;;531.45;474.20;;;;;;;;;;5010590;28;20080;-82
2021/06/17 04:13:44;;;;;;;532.22;474.88;;;;;;;;;;5015182;28;20076;-82
2021/06/17 04:16:13;;;;;;;530.90;473.63;;;;;;;;;;5022897;28;20068;-81
2021/06/17 04:18:48;;;;;;;538.65;480.90;;;;;;;;;;5021619;28;20034;-86
2021/06/17 04:21:15;;;;;;;536.13;478.50;;;;;;;;;;5021855;28;20026;-84
2021/06/17 04:23:42;;;;;;;538.75;480.88;;;;;;;;;;5021644;28;20033;-81
2021/06/17 04:26:08;;;;;;;543.50;485.23;;;;;;;;;;5015400;28;20041;-81
2021/06/17 04:28:36;;;;;;;538.85;481.30;;;;;;;;;;5024224;28;20456;-80
2021/06/17 04:31:06;;;;;;;546.10;488.25;;;;;;;;;;5006622;28;20352;-81
2021/06/17 04:33:34;;;;;;;539.00;481.67;;;;;;;;;;5021352;28;20041;-81
2021/06/17 04:36:03;;;;;;;535.17;478.00;;;;;;;;;;5011817;28;20037;-81
2021/06/17 04:38:30;;;;;;;542.38;484.38;;;;;;;;;;5023195;28;20029;-81
2021/06/17 04:40:58;;;;;;;542.58;484.90;;;;;;;;;;5009779;28;20041;-81
2021/06/17 04:43:25;;;;;;;537.50;480.30;;;;;;;;;;5009562;28;20026;-81
2021/06/17 04:45:55;;;;;;;540.88;483.17;;;;;;;;;;5018511;28;20033;-81
2021/06/17 04:48:25;;;;;;;535.55;478.27;;;;;;;;;;5015030;28;20022;-81
2021/06/17 04:50:51;;;;;;;535.58;478.20;;;;;;;;;;5018083;28;20044;-81
2021/06/17 04:53:18;;;;;;;534.13;477.05;;;;;;;;;;5007403;28;20029;-81
2021/06/17 04:55:48;;;;;;;538.45;481.02;;;;;;;;;;5007687;28;20040;-83
2021/06/17 04:58:17;;;;;;;540.45;482.95;;;;;;;;;;5020316;28;20053;-81
2021/06/17 05:00:43;;;;;;;543.30;485.73;;;;;;;;;;5010498;28;20452;-81
2021/06/17 05:03:09;;;;;;;538.40;481.17;;;;;;;;;;5027771;28;20029;-80
2021/06/17 05:05:35;;;;;;;546.88;489.33;;;;;;;;;;5022439;28;20116;-82
2021/06/17 05:10:50;;;;;;;549.95;492.33;;;;;;;;;;5025541;28;20057;-80
2021/06/17 05:13:21;;;;;;;542.63;485.52;;;;;;;;;;5008266;28;20388;-81
2021/06/17 05:15:49;;;;;;;548.20;490.98;;;;;;;;;;5015418;28;20105;-82
2021/06/17 05:18:17;;;;;;;552.65;495.25;;;;;;;;;;5004447;28;20041;-82
2021/06/17 05:20:43;;;;;;;557.42;499.73;;;;;;;;;;5012265;28;20046;-81
2021/06/17 05:23:10;;;;;;;558.83;501.20;;;;;;;;;;4996167;28;21163;-82
2021/06/17 05:25:36;;;;;;;557.47;500.02;;;;;;;;;;5022046;28;20037;-81
2021/06/17 05:28:05;;;;;;;555.60;497.98;;;;;;;;;;5024556;28;20025;-81
2021/06/17 05:30:31;;;;;;;556.72;499.33;;;;;;;;;;5018229;28;20048;-83
2021/06/17 05:32:57;;;;;;;559.85;500.88;;;;;;;;;;5009191;28;20041;-81
2021/06/17 05:35:28;;;;;;;558.95;501.50;;;;;;;;;;5009580;28;20039;-81
2021/06/17 05:37:57;;;;;;;559.60;502.48;;;;;;;;;;5024390;28;20045;-82
2021/06/17 05:40:23;;;;;;;558.05;500.80;;;;;;;;;;5005445;28;20468;-81
2021/06/17 05:42:52;;;;;;;554.90;497.80;;;;;;;;;;5019806;28;20144;-82
2021/06/17 05:45:18;;;;;;;557.30;500.08;;;;;;;;;;5021723;28;20365;-82
2021/06/17 05:47:45;;;;;;;560.83;503.42;;;;;;;;;;5014233;28;20017;-81
2021/06/17 05:50:11;;;;;;;559.10;501.85;;;;;;;;;;5011996;28;20063;-81
2021/06/17 05:52:40;;;;;;;563.22;505.88;;;;;;;;;;5008133;28;20049;-80
2021/06/17 05:55:14;;;;;;;560.63;503.27;;;;;;;;;;5022393;28;20022;-81
2021/06/17 05:57:40;;;;;;;557.33;500.23;;;;;;;;;;5020057;28;20028;-81
2021/06/17 06:00:07;;;;;;;568.22;510.80;;;;;;;;;;5017825;28;20091;-82
2021/06/17 06:02:33;;;;;;;567.28;509.55;;;;;;;;;;5004128;28;20060;-82
2021/06/17 06:04:59;;;;;;;573.45;515.70;;;;;;;;;;5021560;28;20516;-81
2021/06/17 06:07:25;;;;;;;575.60;517.80;;;;;;;;;;5022409;28;20444;-81
2021/06/17 06:09:51;;;;;;;570.58;513.30;;;;;;;;;;5005519;28;20049;-82
2021/06/17 06:12:17;;;;;;;580.28;522.35;;;;;;;;;;5020511;28;20034;-82
2021/06/17 06:14:43;;;;;;;582.00;524.45;;;;;;;;;;5002218;28;20030;-81
2021/06/17 06:17:09;;;;;;;574.90;517.47;;;;;;;;;;5023722;28;20048;-83
2021/06/17 06:19:36;;;;;;;581.83;524.22;;;;;;;;;;5009718;28;20022;-83
2021/06/17 06:22:06;;;;;;;574.83;517.72;;;;;;;;;;5020795;28;20519;-81
2021/06/17 06:24:33;;;;;;;576.53;519.15;;;;;;;;;;5006178;28;20021;-81
2021/06/17 06:27:00;;;;;;;578.85;521.75;;;;;;;;;;5022028;28;20026;-82
2021/06/17 06:29:26;;;;;;;585.17;527.67;;;;;;;;;;5009463;28;20029;-82
2021/06/17 06:31:52;;;;;;;586.42;528.90;;;;;;;;;;5020711;28;20055;-82
2021/06/17 06:34:18;;;;;;;580.25;523.13;;;;;;;;;;5022384;28;20022;-83
2021/06/17 06:36:44;;;;;;;585.75;528.35;;;;;;;;;;5019794;28;20095;-83
2021/06/17 06:39:10;;;;;;;592.22;534.67;;;;;;;;;;5022470;28;20029;-82
2021/06/17 06:41:37;;;;;;;584.58;527.45;;;;;;;;;;5015050;28;20456;-82
2021/06/17 06:44:03;;;;;;;587.70;530.47;;;;;;;;;;5008863;28;20117;-83
2021/06/17 06:46:29;;;;;;;592.65;535.30;;;;;;;;;;5017713;28;20104;-82
2021/06/17 06:48:55;;;;;;;592.42;535.25;;;;;;;;;;5010437;28;20044;-83
2021/06/17 06:51:21;;;;;;;593.65;536.33;;;;;;;;;;5019575;28;20456;-82
2021/06/17 06:53:47;;;;;;;602.03;543.92;;;;;;;;;;5021719;28;20048;-82
2021/06/17 06:56:14;;;;;;;597.70;540.17;;;;;;;;;;5017966;28;20408;-84
2021/06/17 06:58:43;;;;;;;594.75;537.33;;;;;;;;;;5007062;28;20057;-82
2021/06/17 07:01:09;;;;;;;600.40;543.03;;;;;;;;;;5022403;28;20037;-83
2021/06/17 07:03:35;;;;;;;599.22;542.05;;;;;;;;;;5015943;28;20364;-83
2021/06/17 07:06:01;;;;;;;601.47;544.22;;;;;;;;;;5020006;28;20471;-83
2021/06/17 07:08:31;;;;;;;602.25;545.08;;;;;;;;;;5005819;28;20036;-82
2021/06/17 07:11:00;;;;;;;610.65;553.10;;;;;;;;;;5022489;28;20046;-82
2021/06/17 07:13:28;;;;;;;603.72;546.53;;;;;;;;;;5031032;28;20112;-83
2021/06/17 07:15:56;;;;;;;607.72;550.58;;;;;;;;;;5023683;28;20116;-82
2021/06/17 07:18:28;;;;;;;607.22;549.95;;;;;;;;;;5023425;28;20026;-83
2021/06/17 07:20:57;;;;;;;613.88;556.45;;;;;;;;;;5024124;28;20037;-82
2021/06/17 07:23:27;;;;;;;611.38;553.90;;;;;;;;;;5021299;28;20029;-82
2021/06/17 07:25:58;;;;;;;612.60;555.13;;;;;;;;;;5029125;28;20165;-84
2021/06/17 07:28:26;;;;;;;616.30;558.53;;;;;;;;;;5014729;28;20030;-82
2021/06/17 07:30:57;;;;;;;613.40;555.92;;;;;;;;;;5010802;28;20032;-83
2021/06/17 07:33:35;;;;;;;617.67;560.15;;;;;;;;;;5008085;28;20030;-82
2021/06/17 07:36:03;;;;;;;610.72;553.25;;;;;;;;;;5014135;28;20025;-84
2021/06/17 07:38:33;;;;;;;611.08;553.63;;;;;;;;;;5016851;28;20026;-82
2021/06/17 07:41:01;;;;;;;606.72;549.42;;;;;;;;;;5014235;28;20022;-83
2021/06/17 07:43:27;;;;;;;612.05;554.40;;;;;;;;;;5027529;28;20025;-82
2021/06/17 07:45:56;;;;;;;622.05;564.20;;;;;;;;;;5024420;28;20448;-83
2021/06/17 07:48:26;;;;;;;607.05;549.88;;;;;;;;;;5012056;28;20080;-82
2021/06/17 07:51:02;;;;;;;617.42;559.60;;;;;;;;;;5027817;28;20088;-85
2021/06/17 07:53:32;;;;;;;627.40;569.53;;;;;;;;;;5008279;28;20593;-82
2021/06/17 07:55:58;;;;;;;622.60;565.00;;;;;;;;;;5010860;28;20127;-82
2021/06/17 07:58:23;;;;;;;636.70;578.97;;;;;;;;;;5008489;28;20065;-82
2021/06/17 08:04:05;;;;;;;631.80;574.42;;;;;;;;;;5022807;28;20909;-82
2021/06/17 08:06:31;;;;;;;637.58;580.13;;;;;;;;;;5006046;28;20030;-82
2021/06/17 08:09:05;;;;;;;646.40;588.40;;;;;;;;;;5007188;28;20085;-83
2021/06/17 08:11:37;;;;;;;650.33;592.25;;;;;;;;;;4994956;28;20690;-86
2021/06/17 08:14:45;;;;;;;;;;;;;;;;;;;;;
2021/06/17 08:17:31;;;;;;;639.42;581.78;;;;;;;;;;4998918;28;20042;-87
2021/06/17 08:23:02;;;;;;;658.15;599.92;;;;;;;;;;5025824;28;20026;-84
2021/06/17 08:25:32;;;;;;;666.88;608.45;;;;;;;;;;5028269;28;20045;-85
2021/06/17 08:28:04;;;;;;;668.60;610.50;;;;;;;;;;5011234;28;20033;-83
2021/06/17 08:30:34;;;;;;;672.92;614.50;;;;;;;;;;5007793;28;20168;-85
2021/06/17 08:36:42;;;;;;;671.40;613.20;;;;;;;;;;4992295;28;20066;-82
2021/06/17 08:39:08;;;;;;;677.13;618.65;;;;;;;;;;4989682;28;20030;-81
2021/06/17 08:41:43;;;;;;;677.58;619.40;;;;;;;;;;5016227;28;20088;-82
2021/06/17 08:44:14;;;;;;;682.78;624.25;;;;;;;;;;5009610;28;20048;-81
2021/06/17 08:46:40;;;;;;;682.20;624.00;;;;;;;;;;5008125;28;20072;-79
2021/06/17 08:49:39;;;;;;;684.00;625.67;;;;;;;;;;5010699;28;20748;-83
2021/06/17 08:52:19;;;;;;;682.35;624.03;;;;;;;;;;5008199;28;20392;-82
2021/06/17 08:55:10;;;;;;;681.42;623.25;;;;;;;;;;5003484;28;20043;-83
2021/06/17 08:57:36;;;;;;;680.33;622.00;;;;;;;;;;5022259;28;20048;-82
2021/06/17 09:00:24;;;;;;;690.72;631.63;;;;;;;;;;5002275;28;20033;-82
2021/06/17 09:03:09;;;;;;;682.42;623.58;;;;;;;;;;5017333;28;20033;-86
2021/06/17 09:05:57;;;;;;;677.20;619.03;;;;;;;;;;5012067;28;20352;-83
2021/06/17 09:08:37;;;;;;;;;;;;;;;;;;;;;
2021/06/17 09:14:26;;;;;;;694.20;635.25;;;;;;;;;;4980355;28;20464;-82
2021/06/17 09:17:24;;;;;;;684.03;625.83;;;;;;;;;;5019351;28;20052;-83
2021/06/17 09:19:57;;;;;;;697.45;638.60;;;;;;;;;;5011026;28;20037;-83
2021/06/17 09:23:07;;;;;;;691.20;632.92;;;;;;;;;;5017781;28;20040;-83
2021/06/17 09:25:58;;;;;;;685.38;627.22;;;;;;;;;;4968966;28;20062;-82
2021/06/17 09:28:49;;;;;;;703.58;644.67;;;;;;;;;;5022209;28;20124;-83
2021/06/17 09:31:34;;;;;;;709.75;650.75;;;;;;;;;;4992352;28;20029;-82
2021/06/17 09:34:06;;;;;;;714.78;654.08;;;;;;;;;;5013344;28;20413;-82
2021/06/17 09:36:36;;;;;;;708.72;650.17;;;;;;;;;;5011883;28;20095;-83
2021/06/17 09:39:31;;;;;;;709.80;651.67;;;;;;;;;;5006459;28;20048;-84
2021/06/17 09:42:16;;;;;;;723.13;664.15;;;;;;;;;;5010755;28;20108;-83
2021/06/17 09:44:56;;;;;;;728.97;669.78;;;;;;;;;;5004059;28;20026;-82
2021/06/17 09:47:24;;;;;;;738.97;680.03;;;;;;;;;;5014399;28;20029;-83
2021/06/17 09:50:01;;;;;;;743.55;684.67;;;;;;;;;;5018226;28;20030;-84
2021/06/17 09:52:47;;;;;;;744.20;685.25;;;;;;;;;;5019530;28;20124;-83
2021/06/17 09:55:35;;;;;;;749.33;690.05;;;;;;;;;;5012455;28;20128;-83
2021/06/17 09:58:06;;;;;;;743.20;684.25;;;;;;;;;;5019824;28;20128;-86
2021/06/17 10:00:52;;;;;;;748.83;689.92;;;;;;;;;;5005957;28;20128;-81
2021/06/17 10:03:42;;;;;;;760.17;701.40;;;;;;;;;;5002208;28;20033;-83
2021/06/17 10:06:20;;;;;;;761.08;702.70;;;;;;;;;;5121302;27;20136;-80
2021/06/17 10:08:46;;;;;;;773.60;715.10;;;;;;;;;;5109109;28;20497;-80
2021/06/17 10:11:14;;;;;;;763.53;705.35;;;;;;;;;;5109628;28;20103;-82
2021/06/17 10:13:41;;;;;;;772.38;713.92;;;;;;;;;;5106667;28;20024;-80
2021/06/17 10:16:09;;;;;;;779.35;720.30;;;;;;;;;;5101568;28;20027;-80
2021/06/17 10:18:40;;;;;;;787.92;729.15;;;;;;;;;;5111214;28;20059;-80
2021/06/17 10:21:12;;;;;;;810.38;750.97;;;;;;;;;;5107330;28;20036;-81
2021/06/17 10:23:39;;;;;;;807.38;748.30;;;;;;;;;;5111500;28;20679;-82
2021/06/17 10:26:06;;;;;;;808.50;749.50;;;;;;;;;;5111730;28;20027;-81
2021/06/17 10:28:40;;;;;;;821.92;762.47;;;;;;;;;;5111902;28;20074;-80
2021/06/17 10:31:06;;;;;;;817.45;758.22;;;;;;;;;;5102975;28;20028;-77
2021/06/17 10:33:34;;;;;;;821.22;761.90;;;;;;;;;;5100795;28;20032;-75
2021/06/17 10:36:27;;;;;;;824.78;765.42;;;;;;;;;;5107340;28;20052;-77
2021/06/17 10:39:09;;;;;;;822.92;762.40;;;;;;;;;;5101740;28;20036;-77
2021/06/17 10:41:50;;;;;;;812.67;753.53;;;;;;;;;;5105275;28;20024;-75
2021/06/17 10:44:36;;;;;;;810.03;751.17;;;;;;;;;;5103756;28;20202;-79
2021/06/17 10:47:32;;;;;;;800.03;741.22;;;;;;;;;;5108375;28;20028;-78
2021/06/17 10:49:58;;;;;;;797.45;738.67;;;;;;;;;;5097354;28;20050;-77
2021/06/17 10:52:28;;;;;;;792.97;734.10;;;;;;;;;;5106169;28;20032;-76
2021/06/17 10:55:06;;;;;;;788.42;729.22;;;;;;;;;;5098785;28;20020;-78
2021/06/17 10:57:51;;;;;;;783.70;724.25;;;;;;;;;;5108017;28;20028;-77
2021/06/17 11:00:27;;;;;;;761.00;701.95;;;;;;;;;;5107780;28;20101;-77
2021/06/17 11:02:55;;;;;;;762.00;702.20;;;;;;;;;;5089459;28;20020;-78
2021/06/17 11:05:34;;;;;;;762.92;703.53;;;;;;;;;;5106560;28;20066;-78
2021/06/17 11:11:05;;;;;;;759.03;699.63;;;;;;;;;;5094714;28;20582;-77
2021/06/17 11:13:38;;;;;;;760.00;700.95;;;;;;;;;;5096282;28;20103;-76
2021/06/17 11:16:24;;;;;;;756.55;697.55;;;;;;;;;;5090774;28;20041;-78
2021/06/17 11:18:58;;;;;;;752.78;693.83;;;;;;;;;;5069995;28;20111;-76
2021/06/17 11:21:25;;;;;;;745.78;687.22;;;;;;;;;;5081045;28;20486;-76
2021/06/17 11:23:51;;;;;;;749.40;690.60;;;;;;;;;;5077723;28;20533;-77
2021/06/17 11:26:38;;;;;;;749.35;690.45;;;;;;;;;;5090290;28;20032;-77
2021/06/17 11:29:26;;;;;;;740.75;682.03;;;;;;;;;;5085429;28;20042;-77
2021/06/17 11:31:53;;;;;;;729.10;670.47;;;;;;;;;;5092122;28;20031;-76
2021/06/17 11:34:33;;;;;;;734.05;675.47;;;;;;;;;;5089105;28;20460;-77
2021/06/17 11:37:02;;;;;;;729.00;670.42;;;;;;;;;;5092768;28;20048;-78
2021/06/17 11:39:33;;;;;;;718.47;660.28;;;;;;;;;;5090812;28;20021;-77
2021/06/17 11:42:00;;;;;;;725.25;666.60;;;;;;;;;;5091035;28;20463;-79
2021/06/17 11:44:27;;;;;;;721.28;662.88;;;;;;;;;;5097251;28;20028;-80
2021/06/17 11:47:02;;;;;;;723.45;664.92;;;;;;;;;;5093668;28;20040;-79
2021/06/17 11:49:39;;;;;;;713.63;655.35;;;;;;;;;;5084994;28;20111;-77
2021/06/17 11:52:10;;;;;;;727.72;668.35;;;;;;;;;;5087874;28;20028;-77
2021/06/17 11:54:36;;;;;;;718.03;659.53;;;;;;;;;;5098063;28;20063;-74
2021/06/17 11:57:03;;;;;;;721.53;662.95;;;;;;;;;;5092440;28;20122;-76
2021/06/17 11:59:32;;;;;;;721.45;663.05;;;;;;;;;;5089526;28;20514;-78
2021/06/17 12:02:22;;;;;;;718.03;659.60;;;;;;;;;;5077192;28;20028;-76
2021/06/17 12:04:55;;;;;;;717.78;659.25;;;;;;;;;;5088615;28;20037;-77
2021/06/17 12:07:26;;;;;;;708.22;649.85;;;;;;;;;;5091312;28;20077;-75
2021/06/17 12:09:53;;;;;;;705.40;647.10;;;;;;;;;;5094363;28;20342;-77
2021/06/17 12:12:27;;;;;;;713.28;654.63;;;;;;;;;;5076763;28;20024;-78
2021/06/17 12:14:57;;;;;;;708.75;650.03;;;;;;;;;;5086728;28;20043;-77
2021/06/17 12:17:27;;;;;;;706.78;648.38;;;;;;;;;;5089067;28;20031;-76
2021/06/17 12:20:09;;;;;;;720.50;661.63;;;;;;;;;;5084443;28;20558;-77
2021/06/17 12:22:42;;;;;;;723.80;664.67;;;;;;;;;;5090848;28;20166;-77
2021/06/17 12:25:09;;;;;;;722.63;663.53;;;;;;;;;;5088418;28;20566;-77
2021/06/17 12:27:35;;;;;;;721.78;663.08;;;;;;;;;;5080975;28;20020;-77
2021/06/17 12:30:20;;;;;;;728.25;669.25;;;;;;;;;;5081686;28;20020;-77
2021/06/17 12:32:56;;;;;;;721.72;662.97;;;;;;;;;;5083141;28;20081;-79
2021/06/17 12:35:25;;;;;;;720.08;661.28;;;;;;;;;;5080572;28;20408;-78
2021/06/17 12:37:59;;;;;;;711.40;652.83;;;;;;;;;;5089439;28;20342;-78
2021/06/17 12:40:33;;;;;;;722.17;663.20;;;;;;;;;;5098817;28;20020;-78
2021/06/17 12:43:19;;;;;;;728.92;670.17;;;;;;;;;;5084873;28;20357;-80
2021/06/17 12:45:47;;;;;;;744.97;684.60;;;;;;;;;;5081340;28;20021;-77
2021/06/17 12:48:46;;;;;;;763.75;704.30;;;;;;;;;;5096493;28;20019;-76
2021/06/17 12:54:05;;;;;;;769.35;710.08;;;;;;;;;;5088338;28;20046;-77
2021/06/17 12:56:31;;;;;;;786.42;726.85;;;;;;;;;;5088560;28;20551;-80
2021/06/17 12:58:57;;;;;;;775.60;716.30;;;;;;;;;;5096820;28;20040;-76
2021/06/17 13:01:24;;;;;;;785.13;725.70;;;;;;;;;;5084379;28;20435;-78
2021/06/17 13:03:53;;;;;;;788.50;729.13;;;;;;;;;;5083782;28;20039;-76
2021/06/17 13:06:47;;;;;;;783.30;723.95;;;;;;;;;;5088242;28;20048;-78
2021/06/17 13:09:24;;;;;;;799.53;740.05;;;;;;;;;;5085201;28;20034;-77
2021/06/17 13:12:13;;;;;;;776.50;717.92;;;;;;;;;;5093645;28;20814;-79
2021/06/17 13:14:59;;;;;;;800.40;741.00;;;;;;;;;;5086197;28;20111;-78
2021/06/17 13:17:32;;;;;;;801.03;741.38;;;;;;;;;;5085666;28;20080;-79
2021/06/17 13:19:58;;;;;;;778.63;720.10;;;;;;;;;;5087960;28;20027;-79
2021/06/17 13:22:26;;;;;;;779.92;721.53;;;;;;;;;;5089910;28;20035;-78
2021/06/17 13:24:52;;;;;;;791.92;733.13;;;;;;;;;;5087409;28;20051;-80
2021/06/17 13:27:20;;;;;;;792.45;733.03;;;;;;;;;;5085289;28;20460;-79
2021/06/17 13:29:55;;;;;;;782.80;724.03;;;;;;;;;;5093177;28;20024;-78
2021/06/17 13:32:21;;;;;;;786.50;727.65;;;;;;;;;;5079581;28;20027;-82
2021/06/17 13:34:48;;;;;;;779.65;721.05;;;;;;;;;;5091747;28;20400;-81
2021/06/17 13:37:14;;;;;;;779.63;721.05;;;;;;;;;;5087521;28;20028;-77
2021/06/17 13:39:40;;;;;;;786.47;727.65;;;;;;;;;;5085924;28;20028;-79
2021/06/17 13:42:11;;;;;;;796.20;737.13;;;;;;;;;;5091514;28;20391;-79
2021/06/17 13:44:38;;;;;;;785.55;726.55;;;;;;;;;;5094143;28;20059;-79
2021/06/17 13:47:04;;;;;;;778.72;720.13;;;;;;;;;;5088142;28;20491;-78
2021/06/17 13:49:30;;;;;;;785.85;727.08;;;;;;;;;;5093137;28;20074;-79
2021/06/17 13:51:56;;;;;;;773.63;714.95;;;;;;;;;;5089927;28;20567;-78
2021/06/17 13:54:28;;;;;;;763.97;705.50;;;;;;;;;;5081293;28;20693;-80
2021/06/17 13:56:55;;;;;;;764.72;705.97;;;;;;;;;;5091441;28;20030;-79
2021/06/17 13:59:21;;;;;;;761.15;701.25;;;;;;;;;;5082606;28;20028;-80
2021/06/17 14:01:47;;;;;;;764.90;706.13;;;;;;;;;;5085172;28;20040;-78
2021/06/17 14:04:19;;;;;;;756.47;698.05;;;;;;;;;;5073951;28;20487;-79
2021/06/17 14:14:32;;;;;;;749.40;690.83;;;;;;;;;;5688132;22;20064;-76
2021/06/17 14:16:58;;;;;;;747.20;688.53;;;;;;;;;;5091386;28;20477;-77
2021/06/17 14:19:24;;;;;;;739.45;680.70;;;;;;;;;;5073983;28;20058;-76
2021/06/17 14:21:51;;;;;;;733.72;675.50;;;;;;;;;;5084026;28;20024;-75
2021/06/17 14:24:18;;;;;;;736.47;677.88;;;;;;;;;;5091499;28;20534;-76
2021/06/17 14:26:45;;;;;;;724.53;666.17;;;;;;;;;;5092565;28;20020;-75
2021/06/17 14:29:11;;;;;;;728.70;670.15;;;;;;;;;;5078555;28;20032;-75
2021/06/17 14:31:38;;;;;;;730.72;671.92;;;;;;;;;;5092591;28;20081;-75
2021/06/17 14:34:08;;;;;;;726.08;667.17;;;;;;;;;;5091665;28;20032;-77
2021/06/17 14:36:39;;;;;;;716.45;657.92;;;;;;;;;;5084298;28;20038;-76
2021/06/17 14:39:05;;;;;;;719.72;661.00;;;;;;;;;;5088567;28;20415;-76
2021/06/17 14:41:31;;;;;;;719.10;660.35;;;;;;;;;;5062333;28;20367;-75
2021/06/17 14:43:58;;;;;;;715.60;656.90;;;;;;;;;;5093269;28;20012;-75
2021/06/17 14:46:24;;;;;;;710.70;652.10;;;;;;;;;;5091521;28;20055;-76